Time;durP1;ratioP1;P1;durP2;ratioP2;P2;SDS_P1;SDS_P2;PMS_P1;PMS_P2;Temp;Humidity;BMP_temperature;BMP_pressure;BME280_temperature;BME280_humidity;BME280_pressure;Samples;Min_cycle;Max_cycle;Signal;HPM_P1;HPM_P2
2023/01/16 00:00:46;;;;;;;0.10;0.10;;;;;;;;;;5035031;28;20100;-75
2023/01/16 00:03:11;;;;;;;0.10;0.10;;;;;;;;;;5039303;28;20083;-72
2023/01/16 00:05:36;;;;;;;0.40;0.40;;;;;;;;;;5037083;28;20068;-72
2023/01/16 00:08:02;;;;;;;0.10;0.10;;;;;;;;;;5036223;28;20021;-72
2023/01/16 00:10:27;;;;;;;0.13;0.13;;;;;;;;;;5038215;28;20465;-73
2023/01/16 00:12:53;;;;;;;0.55;0.55;;;;;;;;;;5038896;28;20033;-72
2023/01/16 00:15:18;;;;;;;0.10;0.10;;;;;;;;;;5037961;28;20006;-72
2023/01/16 00:17:44;;;;;;;0.47;0.47;;;;;;;;;;5038452;28;20456;-73
2023/01/16 00:20:09;;;;;;;0.10;0.10;;;;;;;;;;5041976;28;20021;-72
2023/01/16 00:22:35;;;;;;;0.20;0.20;;;;;;;;;;5033204;28;20461;-72
2023/01/16 00:25:00;;;;;;;0.10;0.10;;;;;;;;;;5041174;28;20780;-72
2023/01/16 00:27:25;;;;;;;1.00;1.00;;;;;;;;;;5042990;28;20029;-72
2023/01/16 00:29:51;;;;;;;0.10;0.10;;;;;;;;;;5029983;28;20021;-72
2023/01/16 00:32:16;;;;;;;0.65;0.65;;;;;;;;;;5041936;28;20074;-72
2023/01/16 00:34:42;;;;;;;0.47;0.45;;;;;;;;;;5043217;28;20377;-73
2023/01/16 00:37:07;;;;;;;1.02;0.80;;;;;;;;;;5041400;28;20022;-73
2023/01/16 00:39:33;;;;;;;0.10;0.10;;;;;;;;;;5042198;28;20033;-72
2023/01/16 00:41:58;;;;;;;0.65;0.60;;;;;;;;;;5042935;28;20441;-72
2023/01/16 00:44:24;;;;;;;0.10;0.10;;;;;;;;;;5043750;28;20025;-72
2023/01/16 00:46:49;;;;;;;0.10;0.10;;;;;;;;;;5043907;28;20108;-73
2023/01/16 00:49:15;;;;;;;0.20;0.20;;;;;;;;;;5036898;28;20096;-73
2023/01/16 00:51:40;;;;;;;0.10;0.10;;;;;;;;;;5036465;28;20106;-73
2023/01/16 00:54:05;;;;;;;0.10;0.10;;;;;;;;;;5036567;28;20057;-74
2023/01/16 00:56:31;;;;;;;0.25;0.25;;;;;;;;;;5036624;28;20013;-72
2023/01/16 00:58:56;;;;;;;1.02;0.95;;;;;;;;;;5036742;28;20075;-72
2023/01/16 01:01:22;;;;;;;0.10;0.10;;;;;;;;;;5036864;28;20029;-73
2023/01/16 01:03:47;;;;;;;1.27;1.27;;;;;;;;;;5036550;28;20025;-73
2023/01/16 01:06:13;;;;;;;1.90;1.80;;;;;;;;;;5036559;28;20045;-72
2023/01/16 01:08:38;;;;;;;0.30;0.30;;;;;;;;;;5036336;28;20423;-73
2023/01/16 01:11:08;;;;;;;0.10;0.10;;;;;;;;;;5036599;28;20072;-72
2023/01/16 01:13:33;;;;;;;0.15;0.15;;;;;;;;;;5036551;28;20569;-72
2023/01/16 01:15:59;;;;;;;0.10;0.10;;;;;;;;;;5036419;28;20108;-72
2023/01/16 01:18:24;;;;;;;0.52;0.52;;;;;;;;;;5036411;28;20025;-73
2023/01/16 01:20:49;;;;;;;0.20;0.20;;;;;;;;;;5036401;28;20492;-73
2023/01/16 01:23:15;;;;;;;0.20;0.20;;;;;;;;;;5035882;28;20104;-73
2023/01/16 01:25:40;;;;;;;0.38;0.38;;;;;;;;;;5036288;28;20098;-72
2023/01/16 01:28:06;;;;;;;0.20;0.20;;;;;;;;;;5036234;28;20492;-73
2023/01/16 01:30:31;;;;;;;0.10;0.10;;;;;;;;;;5036241;28;20421;-71
2023/01/16 01:32:56;;;;;;;0.20;0.20;;;;;;;;;;5018386;28;20104;-72
2023/01/16 01:35:22;;;;;;;0.75;0.75;;;;;;;;;;5036246;28;20030;-72
2023/01/16 01:37:47;;;;;;;0.10;0.10;;;;;;;;;;5035678;28;20022;-74
2023/01/16 01:40:13;;;;;;;0.32;0.32;;;;;;;;;;5035938;28;20473;-72
2023/01/16 01:42:51;;;;;;;0.55;0.55;;;;;;;;;;5036133;28;20036;-72
2023/01/16 01:45:17;;;;;;;0.17;0.17;;;;;;;;;;5036034;28;20476;-74
2023/01/16 01:47:45;;;;;;;0.10;0.10;;;;;;;;;;5035830;28;20029;-72
2023/01/16 01:50:17;;;;;;;1.85;1.75;;;;;;;;;;5035845;28;20023;-72
2023/01/16 01:52:43;;;;;;;0.10;0.10;;;;;;;;;;5035611;28;20026;-73
2023/01/16 01:55:10;;;;;;;0.25;0.15;;;;;;;;;;5018100;28;20101;-73
2023/01/16 01:57:39;;;;;;;0.30;0.30;;;;;;;;;;5035305;28;20411;-75
2023/01/16 02:00:07;;;;;;;0.20;0.20;;;;;;;;;;5035667;28;20084;-74
2023/01/16 02:02:44;;;;;;;0.10;0.10;;;;;;;;;;5035621;28;20039;-73
2023/01/16 02:05:12;;;;;;;0.63;0.63;;;;;;;;;;5035714;28;20042;-73
2023/01/16 02:07:38;;;;;;;0.10;0.10;;;;;;;;;;5018030;28;20033;-73
2023/01/16 02:10:13;;;;;;;0.10;0.10;;;;;;;;;;5035407;28;20491;-73
2023/01/16 02:12:38;;;;;;;1.75;0.43;;;;;;;;;;5026586;28;20353;-72
2023/01/16 02:15:05;;;;;;;0.55;0.55;;;;;;;;;;5036368;28;20538;-72
2023/01/16 02:20:19;;;;;;;0.10;0.10;;;;;;;;;;5035626;28;20025;-71
2023/01/16 02:23:01;;;;;;;3.10;2.90;;;;;;;;;;5017328;28;20030;-73
2023/01/16 02:25:36;;;;;;;0.10;0.10;;;;;;;;;;5015452;28;20018;-71
2023/01/16 02:28:10;;;;;;;0.10;0.10;;;;;;;;;;5015439;28;20031;-72
2023/01/16 02:30:51;;;;;;;0.10;0.10;;;;;;;;;;5014132;28;20074;-75
2023/01/16 02:33:16;;;;;;;0.10;0.10;;;;;;;;;;5015238;28;20032;-71
2023/01/16 02:35:45;;;;;;;0.20;0.20;;;;;;;;;;5015161;28;20017;-72
2023/01/16 02:38:19;;;;;;;0.10;0.10;;;;;;;;;;5032418;28;20047;-72
2023/01/16 02:41:03;;;;;;;0.13;0.13;;;;;;;;;;5034682;28;20029;-72
2023/01/16 02:43:41;;;;;;;0.10;0.10;;;;;;;;;;5034980;28;20025;-74
2023/01/16 02:46:18;;;;;;;0.10;0.10;;;;;;;;;;5034802;28;20360;-73
2023/01/16 02:48:49;;;;;;;0.10;0.10;;;;;;;;;;5034780;28;20401;-72
2023/01/16 02:51:23;;;;;;;1.30;0.63;;;;;;;;;;5034341;28;20427;-71
2023/01/16 02:53:48;;;;;;;0.30;0.30;;;;;;;;;;5034578;28;20021;-72
2023/01/16 02:56:17;;;;;;;0.10;0.10;;;;;;;;;;5034798;28;20512;-71
2023/01/16 02:58:43;;;;;;;0.10;0.10;;;;;;;;;;5034517;28;20355;-72
2023/01/16 03:01:09;;;;;;;0.10;0.10;;;;;;;;;;5034591;28;20025;-72
2023/01/16 03:04:03;;;;;;;0.30;0.30;;;;;;;;;;5033115;28;20365;-72
2023/01/16 03:06:34;;;;;;;0.10;0.10;;;;;;;;;;5034042;28;20045;-72
2023/01/16 03:09:02;;;;;;;0.10;0.10;;;;;;;;;;5033609;28;20026;-71
2023/01/16 03:11:30;;;;;;;0.10;0.10;;;;;;;;;;5034375;28;20042;-72
2023/01/16 03:14:21;;;;;;;0.20;0.20;;;;;;;;;;5034333;28;20021;-72
2023/01/16 03:17:10;;;;;;;0.10;0.10;;;;;;;;;;5031445;28;20037;-74
2023/01/16 03:19:51;;;;;;;0.47;0.47;;;;;;;;;;5026346;28;20072;-72
2023/01/16 03:22:21;;;;;;;0.82;0.70;;;;;;;;;;5034251;28;20337;-73
2023/01/16 03:24:53;;;;;;;5.85;1.40;;;;;;;;;;5016008;28;20034;-72
2023/01/16 03:27:18;;;;;;;9.90;1.83;;;;;;;;;;5034269;28;20052;-72
2023/01/16 03:29:50;;;;;;;0.82;0.50;;;;;;;;;;5033868;28;20076;-75
2023/01/16 03:32:26;;;;;;;0.70;0.25;;;;;;;;;;5032930;28;20017;-75
2023/01/16 03:34:53;;;;;;;5.20;1.60;;;;;;;;;;5033382;28;20040;-75
2023/01/16 03:37:21;;;;;;;3.92;0.50;;;;;;;;;;5033200;28;20029;-75
2023/01/16 03:39:50;;;;;;;14.13;1.80;;;;;;;;;;5034037;28;20437;-74
2023/01/16 03:42:19;;;;;;;0.10;0.10;;;;;;;;;;5033969;28;20025;-75
2023/01/16 03:44:50;;;;;;;0.10;0.10;;;;;;;;;;5033810;28;20037;-75
2023/01/16 03:47:20;;;;;;;3.58;0.57;;;;;;;;;;5033389;28;20067;-75
2023/01/16 03:49:47;;;;;;;0.38;0.30;;;;;;;;;;5015533;28;20037;-75
2023/01/16 03:52:15;;;;;;;6.45;2.28;;;;;;;;;;5015846;28;20020;-75
2023/01/16 03:54:40;;;;;;;0.30;0.30;;;;;;;;;;5033232;28;20036;-74
2023/01/16 03:57:06;;;;;;;6.50;1.65;;;;;;;;;;5033642;28;20021;-77
2023/01/16 03:59:31;;;;;;;10.15;2.10;;;;;;;;;;5033914;28;20365;-76
2023/01/16 04:01:58;;;;;;;4.50;1.27;;;;;;;;;;5032130;28;20060;-77
2023/01/16 04:04:26;;;;;;;8.20;2.20;;;;;;;;;;5029018;28;20068;-76
2023/01/16 04:06:54;;;;;;;4.63;1.15;;;;;;;;;;5012149;28;20026;-76
2023/01/16 04:09:26;;;;;;;2.50;1.13;;;;;;;;;;5029594;28;20080;-76
2023/01/16 04:11:52;;;;;;;5.35;1.05;;;;;;;;;;5029348;28;20254;-75
2023/01/16 04:14:19;;;;;;;5.82;0.70;;;;;;;;;;5029544;28;20450;-75
2023/01/16 04:16:45;;;;;;;2.20;1.17;;;;;;;;;;5029913;28;20022;-77
2023/01/16 04:19:12;;;;;;;3.67;1.15;;;;;;;;;;5029038;28;20489;-79
2023/01/16 04:21:37;;;;;;;5.15;0.60;;;;;;;;;;5030334;28;20396;-76
2023/01/16 04:24:03;;;;;;;0.30;0.30;;;;;;;;;;5029050;28;20032;-76
2023/01/16 04:26:29;;;;;;;3.38;1.15;;;;;;;;;;5029533;28;20370;-72
2023/01/16 04:28:55;;;;;;;0.20;0.20;;;;;;;;;;5029497;28;20026;-74
2023/01/16 04:31:22;;;;;;;2.70;1.02;;;;;;;;;;5029463;28;20465;-74
2023/01/16 04:33:47;;;;;;;5.82;2.08;;;;;;;;;;5029023;28;20033;-74
2023/01/16 04:36:13;;;;;;;7.18;1.60;;;;;;;;;;5029197;28;20022;-74
2023/01/16 04:38:38;;;;;;;7.70;2.20;;;;;;;;;;5011876;28;20117;-74
2023/01/16 04:41:03;;;;;;;7.85;1.48;;;;;;;;;;5029534;28;20036;-76
2023/01/16 04:43:29;;;;;;;10.00;1.83;;;;;;;;;;5029190;28;20032;-77
2023/01/16 04:45:55;;;;;;;7.72;1.63;;;;;;;;;;5028920;28;20533;-77
2023/01/16 04:48:20;;;;;;;10.95;2.65;;;;;;;;;;5029053;28;20033;-77
2023/01/16 04:50:49;;;;;;;4.05;0.95;;;;;;;;;;5030801;28;20048;-76
2023/01/16 04:53:15;;;;;;;1.60;0.97;;;;;;;;;;5044082;28;20534;-78
2023/01/16 04:55:40;;;;;;;3.80;1.77;;;;;;;;;;5028915;28;20264;-78
2023/01/16 04:58:05;;;;;;;13.25;3.42;;;;;;;;;;5028607;28;20021;-76
2023/01/16 05:00:31;;;;;;;11.40;2.13;;;;;;;;;;5028424;28;20087;-75
2023/01/16 05:02:56;;;;;;;15.05;4.10;;;;;;;;;;5029066;28;20570;-74
2023/01/16 05:05:22;;;;;;;5.75;1.60;;;;;;;;;;5028803;28;20045;-82
2023/01/16 05:08:15;;;;;;;6.18;1.20;;;;;;;;;;5028647;28;20049;-76
2023/01/16 05:10:32;;;;;;;7.63;1.85;;;;;;;;;;5028392;28;20452;-75
2023/01/16 05:12:58;;;;;;;12.10;2.80;;;;;;;;;;5029057;28;20052;-81
2023/01/16 05:15:23;;;;;;;17.50;2.20;;;;;;;;;;5033326;28;20104;-75
2023/01/16 05:17:49;;;;;;;12.48;1.90;;;;;;;;;;5044519;28;20048;-77
2023/01/16 05:20:15;;;;;;;6.45;2.05;;;;;;;;;;5031184;28;20078;-76
2023/01/16 05:22:40;;;;;;;0.77;0.75;;;;;;;;;;5036861;28;20033;-79
2023/01/16 05:25:06;;;;;;;6.65;1.52;;;;;;;;;;5028854;28;20020;-78
2023/01/16 05:27:31;;;;;;;3.35;0.63;;;;;;;;;;5029071;28;20017;-77
2023/01/16 05:29:57;;;;;;;5.88;0.63;;;;;;;;;;5028378;28;20030;-76
2023/01/16 05:32:22;;;;;;;0.30;0.30;;;;;;;;;;5029908;28;20100;-78
2023/01/16 05:34:48;;;;;;;0.10;0.10;;;;;;;;;;5032804;28;20432;-77
2023/01/16 05:37:13;;;;;;;0.30;0.30;;;;;;;;;;5031956;28;20044;-76
2023/01/16 05:39:38;;;;;;;4.32;1.13;;;;;;;;;;5011129;28;20479;-76
2023/01/16 05:42:20;;;;;;;9.80;2.58;;;;;;;;;;5012150;28;20029;-76
2023/01/16 05:44:46;;;;;;;10.55;2.15;;;;;;;;;;5012160;28;20060;-78
2023/01/16 05:47:12;;;;;;;0.55;0.30;;;;;;;;;;5029116;28;20021;-79
2023/01/16 05:49:37;;;;;;;9.13;1.40;;;;;;;;;;5032152;28;20037;-79
2023/01/16 05:52:03;;;;;;;2.85;0.65;;;;;;;;;;5032211;28;20025;-79
2023/01/16 05:54:28;;;;;;;1.35;0.73;;;;;;;;;;5031292;28;20029;-78
2023/01/16 05:56:54;;;;;;;6.00;0.80;;;;;;;;;;5032072;28;20032;-82
2023/01/16 05:59:19;;;;;;;2.92;0.90;;;;;;;;;;5031765;28;20108;-82
2023/01/16 06:01:45;;;;;;;8.05;1.58;;;;;;;;;;5031548;28;20026;-78
2023/01/16 06:04:10;;;;;;;2.92;0.65;;;;;;;;;;5014291;28;20123;-77
2023/01/16 06:06:35;;;;;;;6.60;0.93;;;;;;;;;;5031553;28;20029;-79
2023/01/16 06:09:01;;;;;;;7.70;1.95;;;;;;;;;;5030548;28;20032;-80
2023/01/16 06:11:26;;;;;;;7.93;1.27;;;;;;;;;;5028303;28;20070;-79
2023/01/16 06:13:52;;;;;;;5.78;2.08;;;;;;;;;;5029134;28;20108;-79
2023/01/16 06:16:17;;;;;;;14.32;3.90;;;;;;;;;;5028946;28;20022;-78
2023/01/16 06:18:43;;;;;;;12.25;1.27;;;;;;;;;;5028632;28;20499;-80
2023/01/16 06:21:08;;;;;;;6.05;1.63;;;;;;;;;;5030359;28;20024;-77
2023/01/16 06:23:33;;;;;;;7.63;1.40;;;;;;;;;;5029983;28;20037;-83
2023/01/16 06:25:59;;;;;;;7.57;1.10;;;;;;;;;;5030639;28;20877;-78
2023/01/16 06:28:25;;;;;;;5.80;1.10;;;;;;;;;;5030949;28;20017;-80
2023/01/16 06:30:51;;;;;;;4.25;1.20;;;;;;;;;;5030131;28;20104;-80
2023/01/16 06:33:17;;;;;;;5.07;2.15;;;;;;;;;;5030918;28;20073;-81
2023/01/16 06:35:42;;;;;;;7.45;1.60;;;;;;;;;;5012422;28;20021;-79
2023/01/16 06:38:08;;;;;;;2.47;0.93;;;;;;;;;;5030158;28;20065;-79
2023/01/16 06:40:33;;;;;;;10.68;2.35;;;;;;;;;;5029986;28;20061;-79
2023/01/16 06:42:59;;;;;;;5.30;1.38;;;;;;;;;;5029588;28;20041;-80
2023/01/16 06:45:24;;;;;;;4.93;1.17;;;;;;;;;;5028411;28;20092;-82
2023/01/16 06:47:51;;;;;;;4.78;1.45;;;;;;;;;;5029386;28;20055;-82
2023/01/16 06:50:16;;;;;;;3.88;0.38;;;;;;;;;;5030438;28;20033;-78
2023/01/16 06:52:41;;;;;;;8.10;1.42;;;;;;;;;;5030794;28;20538;-79
2023/01/16 06:55:07;;;;;;;3.03;0.40;;;;;;;;;;5031498;28;20029;-82
2023/01/16 06:57:34;;;;;;;1.23;0.45;;;;;;;;;;5031744;28;20053;-79
2023/01/16 06:59:59;;;;;;;13.88;1.20;;;;;;;;;;5030977;28;20860;-79
2023/01/16 07:02:24;;;;;;;1.42;0.50;;;;;;;;;;5030968;28;20120;-79
2023/01/16 07:04:50;;;;;;;10.80;2.28;;;;;;;;;;5022505;28;20081;-81
2023/01/16 07:07:15;;;;;;;0.60;0.40;;;;;;;;;;5010853;28;20369;-79
2023/01/16 07:09:41;;;;;;;2.85;1.35;;;;;;;;;;5010698;28;20061;-79
2023/01/16 07:12:06;;;;;;;11.70;2.20;;;;;;;;;;5010868;28;20049;-81
2023/01/16 07:22:45;;;;;;;3.92;1.48;;;;;;;;;;5010417;28;20029;-77
2023/01/16 07:25:14;;;;;;;4.95;1.60;;;;;;;;;;5009637;28;20018;-77
2023/01/16 07:27:39;;;;;;;7.68;1.20;;;;;;;;;;5010379;28;20570;-77
2023/01/16 07:30:05;;;;;;;4.75;1.42;;;;;;;;;;5010402;28;20057;-79
2023/01/16 07:32:31;;;;;;;12.90;1.70;;;;;;;;;;5010485;28;20041;-75
2023/01/16 07:34:56;;;;;;;4.13;1.58;;;;;;;;;;5010612;28;20018;-76
2023/01/16 07:37:22;;;;;;;1.08;0.50;;;;;;;;;;5010511;28;20021;-76
2023/01/16 07:39:47;;;;;;;6.13;1.35;;;;;;;;;;5010192;28;20034;-75
2023/01/16 07:42:12;;;;;;;9.70;1.88;;;;;;;;;;4992880;28;20026;-78
2023/01/16 07:44:38;;;;;;;10.43;2.05;;;;;;;;;;5010126;28;20014;-77
2023/01/16 07:47:03;;;;;;;13.32;1.35;;;;;;;;;;5010372;28;20045;-77
2023/01/16 07:49:29;;;;;;;3.30;1.17;;;;;;;;;;5010142;28;20516;-77
2023/01/16 07:51:54;;;;;;;0.10;0.10;;;;;;;;;;5029420;28;20017;-76
2023/01/16 07:54:21;;;;;;;6.43;2.05;;;;;;;;;;5029355;28;20033;-74
2023/01/16 07:56:47;;;;;;;9.27;2.28;;;;;;;;;;5029922;28;20037;-75
2023/01/16 07:59:12;;;;;;;14.00;2.63;;;;;;;;;;5029923;28;20114;-77
2023/01/16 08:01:39;;;;;;;11.98;2.33;;;;;;;;;;5029944;28;20013;-75
2023/01/16 08:04:04;;;;;;;8.52;1.70;;;;;;;;;;5029278;28;20412;-76
2023/01/16 08:06:30;;;;;;;1.60;0.32;;;;;;;;;;5029711;28;20040;-75
2023/01/16 08:08:55;;;;;;;13.65;2.25;;;;;;;;;;5029171;28;20045;-77
2023/01/16 08:11:37;;;;;;;9.60;1.85;;;;;;;;;;5011900;28;20029;-79
2023/01/16 08:14:03;;;;;;;14.15;2.50;;;;;;;;;;5029974;28;20021;-77
2023/01/16 08:16:29;;;;;;;0.68;0.45;;;;;;;;;;5029358;28;20017;-75
2023/01/16 08:18:54;;;;;;;4.10;0.40;;;;;;;;;;5037001;28;20020;-75
2023/01/16 08:21:20;;;;;;;14.52;2.33;;;;;;;;;;5028822;28;20032;-75
2023/01/16 08:23:45;;;;;;;4.40;0.98;;;;;;;;;;5028865;28;20018;-74
2023/01/16 08:26:11;;;;;;;3.40;1.05;;;;;;;;;;5029555;28;20132;-74
2023/01/16 08:28:37;;;;;;;16.38;2.88;;;;;;;;;;5029420;28;20025;-73
2023/01/16 08:31:13;;;;;;;17.55;2.75;;;;;;;;;;5028693;28;20034;-77
2023/01/16 08:33:39;;;;;;;12.63;2.45;;;;;;;;;;5020625;28;20025;-74
2023/01/16 08:36:05;;;;;;;8.48;1.63;;;;;;;;;;5028298;28;20037;-74
2023/01/16 08:38:31;;;;;;;8.45;1.75;;;;;;;;;;5029464;28;20045;-72
2023/01/16 08:40:57;;;;;;;9.90;1.17;;;;;;;;;;5042142;28;20038;-75
2023/01/16 08:51:56;;;;;;;10.15;2.00;;;;;;;;;;5029115;28;20084;-73
2023/01/16 08:54:21;;;;;;;8.07;1.83;;;;;;;;;;5029364;28;20404;-73
2023/01/16 08:56:47;;;;;;;14.02;1.92;;;;;;;;;;5029179;28;20013;-74
2023/01/16 08:59:12;;;;;;;4.78;1.77;;;;;;;;;;5010957;28;20030;-72
2023/01/16 09:01:38;;;;;;;3.63;0.95;;;;;;;;;;5028791;28;20056;-73
2023/01/16 09:04:04;;;;;;;5.80;0.82;;;;;;;;;;5028517;28;20026;-75
2023/01/16 09:06:30;;;;;;;9.43;1.58;;;;;;;;;;5029579;28;20040;-72
2023/01/16 09:08:55;;;;;;;8.77;2.35;;;;;;;;;;5032103;28;20021;-72
2023/01/16 09:14:04;;;;;;;2.30;0.75;;;;;;;;;;5012940;28;20434;-73
2023/01/16 09:16:30;;;;;;;7.13;1.60;;;;;;;;;;5029679;28;20100;-72
2023/01/16 09:18:55;;;;;;;1.08;0.30;;;;;;;;;;5028960;28;20100;-72
2023/01/16 09:21:23;;;;;;;14.88;3.28;;;;;;;;;;5029183;28;20024;-72
2023/01/16 09:23:49;;;;;;;7.82;2.45;;;;;;;;;;5030733;28;20350;-73
2023/01/16 09:26:15;;;;;;;4.70;1.25;;;;;;;;;;5030108;28;20476;-72
2023/01/16 09:28:40;;;;;;;8.98;2.05;;;;;;;;;;5030526;28;20017;-72
2023/01/16 09:31:06;;;;;;;0.65;0.30;;;;;;;;;;5029986;28;20041;-72
2023/01/16 09:33:31;;;;;;;10.52;1.55;;;;;;;;;;5032387;28;20024;-72
2023/01/16 09:35:57;;;;;;;9.93;2.58;;;;;;;;;;5030862;28;20104;-72
2023/01/16 09:38:22;;;;;;;5.43;1.52;;;;;;;;;;5032112;28;20021;-73
2023/01/16 09:40:51;;;;;;;3.67;1.13;;;;;;;;;;5031899;28;20022;-73
2023/01/16 09:43:35;;;;;;;5.30;1.70;;;;;;;;;;5014326;28;20453;-76
2023/01/16 09:46:02;;;;;;;7.72;1.55;;;;;;;;;;5031797;28;20264;-74
2023/01/16 09:48:30;;;;;;;4.75;1.17;;;;;;;;;;5032249;28;20029;-73
2023/01/16 09:50:59;;;;;;;0.20;0.20;;;;;;;;;;5032646;28;20030;-73
2023/01/16 09:59:13;;;;;;;0.98;0.75;;;;;;;;;;5031955;28;20037;-74
2023/01/16 10:01:45;;;;;;;2.78;0.52;;;;;;;;;;5031816;28;20432;-74
2023/01/16 10:04:18;;;;;;;9.85;1.88;;;;;;;;;;5031901;28;20025;-72
2023/01/16 10:07:09;;;;;;;7.13;0.98;;;;;;;;;;5031879;28;20025;-72
2023/01/16 10:09:52;;;;;;;10.00;1.92;;;;;;;;;;5007940;28;20045;-71
2023/01/16 10:12:17;;;;;;;5.47;0.77;;;;;;;;;;5031934;28;20033;-71
2023/01/16 10:14:53;;;;;;;16.83;2.45;;;;;;;;;;5031503;28;20013;-71
2023/01/16 10:17:37;;;;;;;5.93;1.15;;;;;;;;;;5031228;28;20026;-71
2023/01/16 10:20:11;;;;;;;11.20;2.08;;;;;;;;;;5031437;28;20096;-71
2023/01/16 10:22:37;;;;;;;3.00;0.90;;;;;;;;;;5031281;28;20029;-73
2023/01/16 10:25:14;;;;;;;3.47;1.40;;;;;;;;;;5031309;28;20189;-74
2023/01/16 10:28:03;;;;;;;2.20;0.70;;;;;;;;;;5013702;28;20025;-75
2023/01/16 10:30:50;;;;;;;4.53;1.73;;;;;;;;;;5023190;28;20111;-73
2023/01/16 10:33:27;;;;;;;6.07;0.98;;;;;;;;;;5031282;28;20029;-72
2023/01/16 10:35:53;;;;;;;3.75;1.00;;;;;;;;;;5031086;28;20041;-72
2023/01/16 10:38:32;;;;;;;7.30;1.17;;;;;;;;;;5031379;28;20021;-72
2023/01/16 10:40:58;;;;;;;10.80;1.10;;;;;;;;;;5031136;28;20048;-72
2023/01/16 10:49:28;;;;;;;8.07;1.55;;;;;;;;;;5030025;28;20038;-72
2023/01/16 10:51:55;;;;;;;8.95;1.65;;;;;;;;;;5030533;28;20045;-73
2023/01/16 10:54:20;;;;;;;11.48;1.70;;;;;;;;;;5031308;28;20014;-72
2023/01/16 10:56:46;;;;;;;0.52;0.30;;;;;;;;;;5013658;28;20044;-72
2023/01/16 10:59:12;;;;;;;3.55;1.05;;;;;;;;;;5030725;28;20484;-73
2023/01/16 11:01:40;;;;;;;8.88;2.20;;;;;;;;;;5030656;28;20029;-76
2023/01/16 11:04:09;;;;;;;3.50;1.02;;;;;;;;;;5030447;28;20021;-73
2023/01/16 11:06:37;;;;;;;7.85;1.15;;;;;;;;;;5013217;28;20492;-73
2023/01/16 11:09:14;;;;;;;4.80;1.55;;;;;;;;;;5030382;28;20472;-73
2023/01/16 11:20:28;;;;;;;14.77;1.85;;;;;;;;;;5030606;28;20405;-72
2023/01/16 11:22:57;;;;;;;0.17;0.17;;;;;;;;;;5030307;28;20403;-73
2023/01/16 11:25:23;;;;;;;7.20;1.08;;;;;;;;;;5030492;28;20056;-73
2023/01/16 11:27:50;;;;;;;1.90;0.60;;;;;;;;;;5029755;28;20052;-75
2023/01/16 11:30:18;;;;;;;4.03;1.17;;;;;;;;;;5029148;28;20044;-73
2023/01/16 11:32:48;;;;;;;5.82;1.33;;;;;;;;;;5029933;28;20032;-72
2023/01/16 11:35:15;;;;;;;2.38;0.80;;;;;;;;;;5012367;28;20358;-72
2023/01/16 11:37:42;;;;;;;20.73;2.05;;;;;;;;;;5012340;28;20151;-73
2023/01/16 11:40:14;;;;;;;5.60;1.42;;;;;;;;;;5012182;28;20040;-73
2023/01/16 11:48:23;;;;;;;4.03;1.33;;;;;;;;;;5029421;28;20173;-73
2023/01/16 11:50:53;;;;;;;3.35;1.00;;;;;;;;;;5029637;28;20104;-72
2023/01/16 11:53:18;;;;;;;8.65;1.52;;;;;;;;;;5012241;28;20438;-72
2023/01/16 11:56:02;;;;;;;7.72;0.93;;;;;;;;;;5029320;28;20064;-73
2023/01/16 11:58:46;;;;;;;6.63;1.10;;;;;;;;;;5012069;28;20457;-72
2023/01/16 12:01:22;;;;;;;0.15;0.15;;;;;;;;;;5029401;28;20587;-73
2023/01/16 12:04:02;;;;;;;7.72;1.48;;;;;;;;;;5011811;28;20083;-73
2023/01/16 12:06:27;;;;;;;;;;;;;;;;;;5011808;28;20135;-73
2023/01/16 12:08:59;;;;;;;0.10;0.10;;;;;;;;;;5029193;28;19986;-75
2023/01/16 12:11:36;;;;;;;6.70;1.42;;;;;;;;;;5028932;28;20315;-74
2023/01/16 12:14:20;;;;;;;1.40;0.52;;;;;;;;;;5028680;28;20036;-74
2023/01/16 12:16:55;;;;;;;3.85;1.17;;;;;;;;;;5029409;28;20056;-73
2023/01/16 12:19:20;;;;;;;5.82;1.33;;;;;;;;;;5029262;28;20465;-73
2023/01/16 12:21:49;;;;;;;0.65;0.22;;;;;;;;;;5028978;28;20075;-71
2023/01/16 12:24:28;;;;;;;0.20;0.10;;;;;;;;;;5029354;28;20018;-72
2023/01/16 12:27:15;;;;;;;1.17;1.02;;;;;;;;;;5029317;28;20503;-72
2023/01/16 12:29:40;;;;;;;0.63;0.40;;;;;;;;;;5028975;28;20045;-75
2023/01/16 12:32:12;;;;;;;1.88;0.47;;;;;;;;;;5029526;28;20060;-73
2023/01/16 12:34:37;;;;;;;7.25;2.47;;;;;;;;;;5029074;28;20041;-72
2023/01/16 12:37:21;;;;;;;0.10;0.10;;;;;;;;;;5029506;28;20032;-72
2023/01/16 12:39:55;;;;;;;0.63;0.40;;;;;;;;;;5029085;28;20026;-71
2023/01/16 12:45:31;;;;;;;3.35;1.35;;;;;;;;;;4991644;28;20121;-72
2023/01/16 12:48:02;;;;;;;7.50;1.02;;;;;;;;;;5024229;28;20520;-72
2023/01/16 12:50:46;;;;;;;1.45;0.55;;;;;;;;;;5033116;28;20037;-75
2023/01/16 12:53:27;;;;;;;0.80;0.55;;;;;;;;;;5033309;28;20034;-72
2023/01/16 12:55:56;;;;;;;0.47;0.38;;;;;;;;;;5032878;28;20031;-72
2023/01/16 12:58:30;;;;;;;3.92;0.52;;;;;;;;;;5033087;28;20635;-71
2023/01/16 13:01:11;;;;;;;2.70;0.77;;;;;;;;;;5033250;28;20037;-72
2023/01/16 13:03:40;;;;;;;6.05;1.40;;;;;;;;;;5032520;28;20017;-72
2023/01/16 13:06:11;;;;;;;4.13;0.93;;;;;;;;;;5032971;28;20037;-72
2023/01/16 13:08:42;;;;;;;2.83;2.05;;;;;;;;;;5032927;28;20029;-72
2023/01/16 13:14:03;;;;;;;6.63;1.08;;;;;;;;;;5032696;28;20052;-75
2023/01/16 13:16:33;;;;;;;0.10;0.10;;;;;;;;;;5032790;28;20469;-73
2023/01/16 13:19:17;;;;;;;3.03;0.70;;;;;;;;;;5032722;28;20026;-73
2023/01/16 13:22:09;;;;;;;10.93;1.35;;;;;;;;;;5032426;28;20087;-73
2023/01/16 13:24:49;;;;;;;1.52;0.20;;;;;;;;;;5009194;28;20038;-73
2023/01/16 13:27:17;;;;;;;0.10;0.10;;;;;;;;;;5032769;28;20032;-74
2023/01/16 13:29:47;;;;;;;0.10;0.10;;;;;;;;;;5032573;28;20025;-73
2023/01/16 13:32:18;;;;;;;0.10;0.10;;;;;;;;;;5033072;28;20033;-72
2023/01/16 13:34:45;;;;;;;0.10;0.10;;;;;;;;;;5032540;28;20040;-73
2023/01/16 13:37:26;;;;;;;0.10;0.10;;;;;;;;;;5032389;28;20449;-72
2023/01/16 13:39:55;;;;;;;0.10;0.10;;;;;;;;;;5032520;28;20025;-73
2023/01/16 13:42:21;;;;;;;0.10;0.10;;;;;;;;;;5032713;28;20060;-75
2023/01/16 13:47:39;;;;;;;0.10;0.10;;;;;;;;;;5032331;28;20029;-74
2023/01/16 13:50:06;;;;;;;0.10;0.10;;;;;;;;;;5031611;28;20045;-73
2023/01/16 13:52:33;;;;;;;0.10;0.10;;;;;;;;;;5030930;28;20377;-76
2023/01/16 13:55:00;;;;;;;0.00;0.00;;;;;;;;;;5032486;28;20017;-73
2023/01/16 13:57:29;;;;;;;0.10;0.10;;;;;;;;;;5032327;28;20013;-73
2023/01/16 13:59:56;;;;;;;0.60;0.60;;;;;;;;;;5013741;28;20030;-72
2023/01/16 14:02:27;;;;;;;2.42;0.45;;;;;;;;;;5031860;28;20037;-72
2023/01/16 14:05:05;;;;;;;3.00;0.70;;;;;;;;;;5032020;28;20041;-73
2023/01/16 14:10:39;;;;;;;3.40;1.15;;;;;;;;;;5031823;28;20021;-73
2023/01/16 14:13:29;;;;;;;1.50;0.43;;;;;;;;;;5031786;28;20515;-73
2023/01/16 14:18:39;;;;;;;5.43;1.08;;;;;;;;;;5031527;28;19905;-73
2023/01/16 14:21:10;;;;;;;0.38;0.30;;;;;;;;;;5028730;28;20021;-73
2023/01/16 14:26:39;;;;;;;3.05;0.95;;;;;;;;;;5029552;28;20022;-73
2023/01/16 14:29:40;;;;;;;0.10;0.10;;;;;;;;;;5029707;28;20025;-73
2023/01/16 14:32:16;;;;;;;2.90;0.65;;;;;;;;;;4967603;28;20498;-73
2023/01/16 14:34:54;;;;;;;5.10;0.90;;;;;;;;;;5020023;28;20042;-74
2023/01/16 14:37:27;;;;;;;4.43;0.82;;;;;;;;;;5029208;28;20020;-76
2023/01/16 14:39:53;;;;;;;1.65;1.00;;;;;;;;;;5010837;28;20052;-74
2023/01/16 14:56:38;;;;;;;5.63;1.52;;;;;;;;;;5028239;28;20060;-74
2023/01/16 14:59:05;;;;;;;2.30;0.68;;;;;;;;;;5028853;28;20736;-73
2023/01/16 15:04:18;;;;;;;0.57;0.22;;;;;;;;;;5028623;28;20520;-73
2023/01/16 15:06:46;;;;;;;0.75;0.47;;;;;;;;;;5010518;28;20039;-73
2023/01/16 15:09:15;;;;;;;2.83;0.70;;;;;;;;;;5028006;28;20017;-73
2023/01/16 15:11:51;;;;;;;2.92;0.73;;;;;;;;;;4994191;28;20063;-75
2023/01/16 15:14:26;;;;;;;2.03;0.60;;;;;;;;;;5029046;28;20048;-73
2023/01/16 15:22:41;;;;;;;1.33;0.38;;;;;;;;;;5028476;28;20401;-75
2023/01/16 15:25:12;;;;;;;8.77;1.17;;;;;;;;;;5028550;28;20091;-74
2023/01/16 15:27:39;;;;;;;2.63;0.30;;;;;;;;;;5028310;28;20026;-75
2023/01/16 15:30:06;;;;;;;2.20;1.17;;;;;;;;;;5010247;28;20368;-75
2023/01/16 15:32:52;;;;;;;1.67;0.65;;;;;;;;;;5027839;28;20029;-76
2023/01/16 15:35:18;;;;;;;8.02;1.50;;;;;;;;;;5010398;28;20028;-74
2023/01/16 15:37:47;;;;;;;6.85;1.38;;;;;;;;;;5008525;28;20037;-77
2023/01/16 15:40:21;;;;;;;1.88;0.40;;;;;;;;;;4996732;28;20033;-74
2023/01/16 15:48:26;;;;;;;6.60;0.85;;;;;;;;;;5027833;28;20029;-77
2023/01/16 15:50:54;;;;;;;3.75;0.70;;;;;;;;;;5027642;28;20527;-73
2023/01/16 15:53:19;;;;;;;5.78;0.77;;;;;;;;;;5035036;28;20024;-75
2023/01/16 15:55:47;;;;;;;1.70;0.98;;;;;;;;;;5049612;28;20059;-74
2023/01/16 15:58:14;;;;;;;0.93;0.70;;;;;;;;;;5050279;28;20021;-73
2023/01/16 16:00:43;;;;;;;0.10;0.10;;;;;;;;;;5037029;28;20059;-74
2023/01/16 16:03:14;;;;;;;1.65;0.77;;;;;;;;;;5010261;28;20094;-74
2023/01/16 16:05:40;;;;;;;9.77;2.45;;;;;;;;;;5008415;28;20050;-74
2023/01/16 16:08:06;;;;;;;5.07;1.23;;;;;;;;;;5009873;28;20073;-73
2023/01/16 16:13:18;;;;;;;0.77;0.68;;;;;;;;;;5009589;28;20029;-73
2023/01/16 16:19:00;;;;;;;0.10;0.10;;;;;;;;;;4992308;28;20393;-73
2023/01/16 16:24:31;;;;;;;2.60;0.88;;;;;;;;;;5019237;28;20373;-74
2023/01/16 16:26:57;;;;;;;0.10;0.10;;;;;;;;;;5029101;28;20036;-73
2023/01/16 16:29:23;;;;;;;0.10;0.10;;;;;;;;;;5028130;28;20120;-73
2023/01/16 16:31:49;;;;;;;0.10;0.10;;;;;;;;;;5023499;28;20149;-72
2023/01/16 16:34:26;;;;;;;0.10;0.10;;;;;;;;;;5011483;28;20026;-73